Time;durP1;ratioP1;P1;durP2;ratioP2;P2;SDS_P1;SDS_P2;PMS_P1;PMS_P2;Temp;Humidity;BMP_temperature;BMP_pressure;BME280_temperature;BME280_humidity;BME280_pressure;Samples;Min_cycle;Max_cycle;Signal;HPM_P1;HPM_P2
2022/08/28 00:02:10;;;;;;;14.60;5.60;;;;;;;26.73;49.67;98263.37;4488033;31;20081;-84
2022/08/28 00:04:36;;;;;;;15.40;5.68;;;;;;;26.88;49.35;98258.66;4488205;31;20407;-84
2022/08/28 00:07:02;;;;;;;15.85;5.35;;;;;;;26.48;50.82;98246.78;4488176;31;20100;-84
2022/08/28 00:09:27;;;;;;;19.05;5.35;;;;;;;26.31;51.60;98250.84;4488006;31;20124;-84
2022/08/28 00:11:53;;;;;;;16.20;6.20;;;;;;;26.31;51.74;98249.00;4487898;31;20348;-84
2022/08/28 00:14:20;;;;;;;17.37;6.03;;;;;;;26.22;52.17;98258.28;4486767;32;20103;-84
2022/08/28 00:16:47;;;;;;;16.15;5.93;;;;;;;26.51;51.55;98254.50;4487918;31;20088;-85
2022/08/28 00:19:13;;;;;;;16.02;5.60;;;;;;;26.13;52.84;98262.97;4486821;32;20104;-84
2022/08/28 00:21:39;;;;;;;15.00;5.93;;;;;;;25.99;53.26;98261.22;4487810;31;20624;-84
2022/08/28 00:24:04;;;;;;;13.35;5.47;;;;;;;26.12;52.66;98257.78;4487820;32;20428;-84
2022/08/28 00:29:14;;;;;;;16.08;5.32;;;;;;;25.48;54.40;98252.22;4487863;32;20157;-84
2022/08/28 00:31:39;;;;;;;11.77;5.12;;;;;;;25.58;53.91;98253.78;4487631;31;20092;-84
2022/08/28 00:34:08;;;;;;;13.38;5.37;;;;;;;25.61;53.96;98250.66;4487767;31;20133;-84
2022/08/28 00:36:35;;;;;;;12.55;4.62;;;;;;;25.50;54.05;98243.94;4487703;31;20403;-84
2022/08/28 00:39:01;;;;;;;14.13;6.55;;;;;;;25.42;53.71;98244.06;4486691;32;20093;-84
2022/08/28 00:41:29;;;;;;;12.50;4.72;;;;;;;25.80;52.65;98255.41;4487863;31;20278;-84
2022/08/28 00:44:24;;;;;;;14.07;4.70;;;;;;;25.01;55.10;98271.56;4487731;31;20084;-84
2022/08/28 00:46:52;;;;;;;14.55;4.75;;;;;;;25.31;54.27;98275.91;4477634;31;20065;-84
2022/08/28 00:49:21;;;;;;;14.45;5.40;;;;;;;24.81;55.12;98257.88;4488060;31;20578;-84
2022/08/28 00:54:35;;;;;;;16.35;5.35;;;;;;;24.98;54.80;98266.59;4486610;32;20107;-84
2022/08/28 00:57:06;;;;;;;16.35;5.10;;;;;;;24.49;56.60;98276.91;4486448;32;20080;-84
2022/08/28 00:59:32;;;;;;;18.17;5.30;;;;;;;24.60;56.48;98270.22;4487635;31;20458;-84
2022/08/28 01:01:58;;;;;;;16.20;5.18;;;;;;;24.91;55.35;98261.91;4487422;31;20098;-84
2022/08/28 01:04:26;;;;;;;12.37;4.57;;;;;;;24.64;56.01;98266.13;4486439;32;20085;-84
2022/08/28 01:06:54;;;;;;;16.08;4.82;;;;;;;24.40;56.54;98259.16;4485873;32;20160;-84
2022/08/28 01:09:21;;;;;;;17.73;5.60;;;;;;;24.42;56.39;98254.41;4487426;31;20112;-84
2022/08/28 01:11:47;;;;;;;;;;;;;;;24.25;56.98;98261.00;4487835;31;20491;-84
2022/08/28 01:14:13;;;;;;;15.23;5.03;;;;;;;24.41;56.59;98249.22;4487565;32;19975;-84
2022/08/28 01:16:40;;;;;;;14.18;4.57;;;;;;;24.07;57.40;98245.22;4486292;32;20092;-84
2022/08/28 01:19:14;;;;;;;12.35;4.55;;;;;;;23.96;57.84;98251.84;4486298;32;20100;-84
2022/08/28 01:21:49;;;;;;;17.08;4.87;;;;;;;24.01;57.60;98252.16;4486264;32;20145;-83
2022/08/28 01:24:17;;;;;;;15.10;4.40;;;;;;;23.51;58.82;98251.69;4486390;32;20689;-84
2022/08/28 01:26:42;;;;;;;;;;;;;;;23.79;57.61;98259.22;4487661;31;20098;-84
2022/08/28 01:29:09;;;;;;;14.87;4.78;;;;;;;23.75;57.54;98258.72;4487459;31;20008;-84
2022/08/28 01:31:36;;;;;;;13.50;4.20;;;;;;;23.64;57.21;98267.25;4486244;32;20771;-84
2022/08/28 01:34:02;;;;;;;14.43;4.25;;;;;;;23.57;57.41;98257.38;4487458;31;20211;-84
2022/08/28 01:36:28;;;;;;;11.65;3.80;;;;;;;23.65;56.80;98274.28;4487703;31;20080;-84
2022/08/28 01:39:04;;;;;;;10.43;3.72;;;;;;;23.42;57.36;98276.13;4487664;31;20112;-84
2022/08/28 01:41:30;;;;;;;9.88;3.40;;;;;;;23.54;56.83;98285.44;4486135;32;20152;-84
2022/08/28 01:43:55;;;;;;;12.23;3.90;;;;;;;23.34;57.28;98277.84;4487263;31;20072;-84
2022/08/28 01:46:21;;;;;;;9.80;3.55;;;;;;;23.10;58.13;98289.59;4487182;31;20140;-84
2022/08/28 01:48:48;;;;;;;12.63;3.78;;;;;;;23.02;58.41;98284.22;4487265;32;20377;-84
2022/08/28 01:51:13;;;;;;;13.50;3.53;;;;;;;23.05;58.41;98283.06;4487435;31;20072;-84
2022/08/28 01:53:40;;;;;;;11.40;3.70;;;;;;;23.03;58.55;98294.00;4487465;31;20114;-84
2022/08/28 01:56:09;;;;;;;11.57;3.75;;;;;;;22.68;59.78;98284.53;4487243;31;20080;-84
2022/08/28 01:58:35;;;;;;;11.68;4.03;;;;;;;22.71;59.76;98274.28;4487255;31;20089;-84
2022/08/28 02:01:01;;;;;;;10.20;3.33;;;;;;;22.88;59.24;98276.91;4486149;32;20088;-84
2022/08/28 02:03:26;;;;;;;10.20;3.50;;;;;;;23.05;58.77;98272.31;4487070;31;20096;-84
2022/08/28 02:05:52;;;;;;;12.98;3.75;;;;;;;22.58;60.29;98263.28;4487180;32;20081;-84
2022/08/28 02:08:18;;;;;;;9.73;3.20;;;;;;;22.63;60.20;98266.25;4487079;31;20089;-84
2022/08/28 02:10:43;;;;;;;12.93;3.50;;;;;;;22.76;59.78;98265.72;4487148;31;20341;-84
2022/08/28 02:13:10;;;;;;;11.10;3.70;;;;;;;22.75;59.93;98267.56;4472659;32;20092;-84
2022/08/28 02:15:36;;;;;;;11.68;3.28;;;;;;;22.86;59.51;98249.38;4486115;32;20080;-84
2022/08/28 02:18:02;;;;;;;9.75;3.30;;;;;;;22.75;59.86;98247.91;4484908;32;20151;-84
2022/08/28 02:20:29;;;;;;;10.38;3.55;;;;;;;22.64;60.27;98243.78;4487357;32;20100;-84
2022/08/28 02:22:56;;;;;;;11.38;3.95;;;;;;;22.57;60.60;98234.75;4485941;32;20111;-84
2022/08/28 02:25:22;;;;;;;12.75;4.18;;;;;;;22.51;60.85;98247.00;4487249;31;20080;-84
2022/08/28 02:27:48;;;;;;;11.48;4.20;;;;;;;22.76;59.93;98238.84;4487302;31;20110;-84
2022/08/28 02:30:14;;;;;;;10.25;3.60;;;;;;;22.89;59.41;98247.19;4487261;32;20100;-84
2022/08/28 02:32:40;;;;;;;10.15;3.50;;;;;;;22.85;59.30;98234.28;4486873;31;20079;-84
2022/08/28 02:35:08;;;;;;;9.40;3.62;;;;;;;22.22;61.43;98244.06;4486922;31;20440;-84
2022/08/28 02:37:34;;;;;;;12.68;3.53;;;;;;;22.57;60.29;98237.41;4486919;31;20108;-84
2022/08/28 02:39:59;;;;;;;9.88;3.97;;;;;;;22.98;58.84;98242.59;4486900;31;20122;-84
2022/08/28 02:42:25;;;;;;;9.95;3.72;;;;;;;22.96;58.81;98236.56;4487129;31;20088;-84
2022/08/28 02:44:51;;;;;;;10.35;3.67;;;;;;;23.35;57.39;98232.97;4487040;31;20161;-84
2022/08/28 02:47:17;;;;;;;13.93;4.00;;;;;;;23.35;57.27;98230.28;4487026;32;20462;-84
2022/08/28 02:49:43;;;;;;;10.00;3.47;;;;;;;23.28;57.60;98240.13;4487125;31;20165;-84
2022/08/28 02:52:09;;;;;;;10.38;3.85;;;;;;;23.06;58.13;98231.81;4486840;31;20120;-84
2022/08/28 02:54:36;;;;;;;10.75;3.90;;;;;;;23.45;56.61;98227.38;4486799;31;20152;-84
2022/08/28 02:57:01;;;;;;;9.13;3.67;;;;;;;23.33;56.79;98235.88;4486739;31;20100;-85
2022/08/28 02:59:26;;;;;;;12.13;4.10;;;;;;;23.55;56.30;98244.12;4486570;31;20106;-84
2022/08/28 03:01:52;;;;;;;9.77;3.87;;;;;;;23.33;56.81;98257.38;4486535;31;20115;-84
2022/08/28 03:04:17;;;;;;;11.38;4.35;;;;;;;22.95;58.25;98272.50;4485407;32;20076;-84
2022/08/28 03:06:43;;;;;;;9.85;3.75;;;;;;;23.31;56.87;98278.22;4486599;31;20123;-84
2022/08/28 03:09:09;;;;;;;12.07;4.20;;;;;;;23.24;56.52;98271.87;4486602;31;20119;-84
2022/08/28 03:11:35;;;;;;;9.20;3.67;;;;;;;23.48;56.11;98254.72;4486375;31;20375;-84
2022/08/28 03:14:02;;;;;;;9.57;4.07;;;;;;;23.18;57.05;98259.16;4486555;31;20107;-84
2022/08/28 03:16:28;;;;;;;10.57;3.80;;;;;;;23.61;55.71;98254.16;4486478;31;20160;-84
2022/08/28 03:18:54;;;;;;;10.70;4.05;;;;;;;23.91;55.03;98263.19;4486412;31;20530;-83
2022/08/28 03:21:19;;;;;;;11.27;4.40;;;;;;;23.31;56.94;98263.94;4486365;31;20140;-84
2022/08/28 03:23:46;;;;;;;11.68;4.47;;;;;;;23.19;57.67;98273.41;4486192;32;20073;-84
2022/08/28 03:26:14;;;;;;;12.80;4.25;;;;;;;23.36;57.25;98273.13;4486386;31;20144;-84
2022/08/28 03:28:46;;;;;;;11.77;3.90;;;;;;;23.47;56.96;98273.72;4486378;31;20108;-84
2022/08/28 03:31:14;;;;;;;10.75;4.30;;;;;;;23.48;57.14;98270.03;4488298;31;20084;-84
2022/08/28 03:33:41;;;;;;;12.15;3.97;;;;;;;23.32;57.74;98265.63;4488199;31;20081;-83
2022/08/28 03:36:08;;;;;;;13.32;4.12;;;;;;;23.51;57.13;98272.38;4488184;31;20104;-84
2022/08/28 03:38:34;;;;;;;11.35;4.37;;;;;;;22.92;59.00;98275.53;4488371;31;20481;-84
2022/08/28 03:41:00;;;;;;;12.82;4.05;;;;;;;22.56;60.07;98276.88;4488204;31;20076;-84
2022/08/28 03:43:26;;;;;;;11.60;4.40;;;;;;;23.00;58.74;98274.66;4486966;32;20591;-84
2022/08/28 03:46:01;;;;;;;11.93;4.30;;;;;;;23.15;58.18;98281.81;4488178;31;20497;-84
2022/08/28 03:48:28;;;;;;;11.52;4.43;;;;;;;22.96;58.80;98282.22;4488190;31;20114;-84
2022/08/28 03:50:54;;;;;;;12.10;4.07;;;;;;;23.27;57.55;98270.69;4486879;32;20076;-84
2022/08/28 03:53:25;;;;;;;11.23;4.07;;;;;;;23.33;57.06;98261.91;4487908;31;20103;-84
2022/08/28 03:55:51;;;;;;;12.23;4.43;;;;;;;22.99;58.14;98275.69;4488159;31;20165;-84
2022/08/28 03:58:17;;;;;;;11.38;4.32;;;;;;;23.12;57.65;98265.22;4488114;31;20480;-84
2022/08/28 04:00:43;;;;;;;11.00;4.25;;;;;;;22.84;58.41;98272.91;4488093;31;20111;-84
2022/08/28 04:03:12;;;;;;;11.43;4.47;;;;;;;22.90;58.11;98264.13;4487879;31;20124;-84
2022/08/28 04:05:42;;;;;;;12.10;4.18;;;;;;;23.03;57.66;98263.59;4487902;31;20159;-84
2022/08/28 04:08:08;;;;;;;9.30;3.80;;;;;;;23.30;56.98;98265.78;4488082;31;20152;-84
2022/08/28 04:10:34;;;;;;;13.23;4.20;;;;;;;23.61;56.18;98259.53;4487903;31;20096;-84
2022/08/28 04:13:00;;;;;;;10.40;4.10;;;;;;;23.62;56.06;98266.56;4487904;31;20107;-84
2022/08/28 04:15:26;;;;;;;10.57;4.12;;;;;;;23.69;55.89;98272.06;4487963;31;20097;-84
2022/08/28 04:17:52;;;;;;;11.43;4.10;;;;;;;23.60;56.19;98270.44;4488011;31;20103;-84
2022/08/28 04:20:19;;;;;;;9.50;4.18;;;;;;;23.42;56.68;98271.59;4487885;31;20099;-84
2022/08/28 04:22:44;;;;;;;14.50;4.60;;;;;;;23.48;56.27;98273.56;4486793;32;20080;-84
2022/08/28 04:25:10;;;;;;;14.10;4.30;;;;;;;23.64;55.63;98275.31;4487842;31;20133;-84
2022/08/28 04:27:35;;;;;;;12.05;3.80;;;;;;;23.79;55.21;98271.84;4486931;32;20105;-84
2022/08/28 04:30:01;;;;;;;9.13;3.90;;;;;;;23.92;54.77;98266.69;4488189;31;20344;-84
2022/08/28 04:32:26;;;;;;;11.98;3.80;;;;;;;23.63;55.65;98268.25;4488013;31;20085;-84
2022/08/28 04:34:52;;;;;;;13.05;4.50;;;;;;;23.77;55.25;98257.72;4488001;31;20100;-84
2022/08/28 04:37:18;;;;;;;9.27;3.87;;;;;;;24.19;54.26;98267.12;4486579;32;20376;-84
2022/08/28 04:39:43;;;;;;;10.73;3.90;;;;;;;24.38;53.58;98265.72;4487799;31;20084;-84
2022/08/28 04:42:09;;;;;;;10.85;4.00;;;;;;;24.00;54.70;98269.31;4486857;31;20500;-84
2022/08/28 04:44:34;;;;;;;11.25;3.85;;;;;;;23.86;54.92;98273.63;4487732;31;20116;-84
2022/08/28 04:47:00;;;;;;;10.05;4.03;;;;;;;24.07;54.31;98280.19;4487711;32;20088;-84
2022/08/28 04:49:26;;;;;;;10.80;4.35;;;;;;;24.23;53.66;98285.41;4487716;31;20084;-84
2022/08/28 04:51:52;;;;;;;9.80;3.70;;;;;;;24.43;53.46;98282.16;4487654;31;20072;-84
2022/08/28 04:54:18;;;;;;;8.50;3.55;;;;;;;24.99;51.98;98279.84;4487763;31;20096;-84
2022/08/28 04:56:43;;;;;;;9.60;3.90;;;;;;;24.95;51.31;98277.72;4487627;31;20115;-84
2022/08/28 04:59:10;;;;;;;10.23;3.78;;;;;;;24.99;50.73;98287.94;4487655;31;20136;-85
2022/08/28 05:01:36;;;;;;;9.07;3.80;;;;;;;25.30;50.29;98294.97;4487423;31;20088;-83
2022/08/28 05:04:02;;;;;;;9.10;3.37;;;;;;;25.41;49.96;98290.94;4487700;31;20466;-84
2022/08/28 05:06:29;;;;;;;11.48;3.80;;;;;;;25.50;49.39;98297.88;4487644;31;20140;-84
2022/08/28 05:08:59;;;;;;;11.20;3.95;;;;;;;25.18;50.00;98299.97;4486455;32;20085;-84
2022/08/28 05:11:27;;;;;;;10.07;3.70;;;;;;;25.33;50.13;98305.38;4487783;31;20230;-84
2022/08/28 05:13:53;;;;;;;9.95;3.95;;;;;;;25.73;48.98;98303.09;4486582;32;20161;-84
2022/08/28 05:16:19;;;;;;;10.02;3.72;;;;;;;25.51;49.22;98307.63;4487889;31;20089;-85
2022/08/28 05:18:46;;;;;;;11.10;3.73;;;;;;;25.81;48.64;98311.06;4487809;31;20111;-84
2022/08/28 05:21:13;;;;;;;10.23;3.83;;;;;;;25.88;48.21;98311.09;4487680;31;20546;-84
2022/08/28 05:23:39;;;;;;;10.38;3.60;;;;;;;25.59;49.39;98318.28;4487743;31;20123;-84
2022/08/28 05:26:05;;;;;;;11.52;3.80;;;;;;;26.03;48.27;98317.28;4487737;31;20097;-84
2022/08/28 05:28:31;;;;;;;8.90;3.58;;;;;;;26.13;48.17;98310.72;4486390;32;20080;-84
2022/08/28 05:31:07;;;;;;;13.55;3.55;;;;;;;26.30;47.86;98314.81;4487593;31;20099;-84
2022/08/28 05:33:32;;;;;;;11.43;3.75;;;;;;;26.43;47.54;98311.38;4486273;32;20088;-85
2022/08/28 05:36:04;;;;;;;14.05;3.92;;;;;;;26.44;47.83;98313.03;4486133;32;20183;-84
2022/08/28 05:38:29;;;;;;;11.23;3.62;;;;;;;26.28;47.66;98311.47;4487471;31;20076;-85
2022/08/28 05:40:55;;;;;;;12.88;3.60;;;;;;;26.73;46.60;98305.78;4487472;31;20102;-85
2022/08/28 05:43:20;;;;;;;10.23;3.62;;;;;;;26.74;46.86;98302.06;4487308;31;20137;-84
2022/08/28 05:45:56;;;;;;;12.88;3.35;;;;;;;27.10;46.24;98311.78;4487415;31;20093;-85
2022/08/28 05:48:22;;;;;;;8.63;3.60;;;;;;;27.23;45.47;98307.25;4482600;31;148331;-84
2022/08/28 05:50:47;;;;;;;10.35;3.60;;;;;;;27.20;45.82;98296.03;4487345;31;20141;-85
2022/08/28 05:53:13;;;;;;;8.93;3.42;;;;;;;27.30;45.48;98301.06;4485983;32;20383;-85
2022/08/28 05:55:39;;;;;;;10.88;3.58;;;;;;;27.43;45.18;98293.00;4487263;31;20140;-84
2022/08/28 05:58:27;;;;;;;9.32;3.87;;;;;;;27.76;44.79;98293.06;4487298;31;20080;-84
2022/08/28 06:00:50;;;;;;;10.57;3.50;;;;;;;27.94;44.48;98292.47;4487188;32;20085;-84
2022/08/28 06:03:15;;;;;;;8.50;3.28;;;;;;;28.18;44.16;98296.44;4487142;31;20088;-84
2022/08/28 06:05:41;;;;;;;12.15;3.47;;;;;;;28.31;43.70;98303.72;4487186;31;20376;-84
2022/08/28 06:08:07;;;;;;;10.60;3.22;;;;;;;28.35;43.35;98307.66;4487185;31;20100;-85
2022/08/28 06:10:32;;;;;;;9.00;3.47;;;;;;;28.63;42.94;98302.03;4487072;31;20141;-85
2022/08/28 06:12:58;;;;;;;9.93;3.30;;;;;;;28.24;42.43;98305.59;4485805;32;20119;-85
2022/08/28 06:15:24;;;;;;;10.35;3.42;;;;;;;28.50;42.75;98304.72;4487158;31;20088;-85
2022/08/28 06:17:49;;;;;;;9.25;3.58;;;;;;;28.95;42.07;98302.13;4487119;31;20159;-85
2022/08/28 06:20:15;;;;;;;8.95;3.83;;;;;;;29.36;40.98;98300.97;4487027;32;20089;-85
2022/08/28 06:22:40;;;;;;;9.90;3.20;;;;;;;29.62;40.59;98295.59;4487040;32;20100;-85
2022/08/28 06:25:08;;;;;;;10.07;3.30;;;;;;;29.49;40.26;98291.91;4486955;32;20107;-85
2022/08/28 06:27:35;;;;;;;;;;;;;;;29.60;40.34;98302.06;4487338;32;20102;-85
2022/08/28 06:30:02;;;;;;;12.60;3.47;;;;;;;30.02;39.58;98298.88;4487002;31;19996;-85
2022/08/28 06:32:28;;;;;;;11.90;3.47;;;;;;;30.01;39.06;98304.53;4486859;31;20108;-85
2022/08/28 06:34:53;;;;;;;10.27;3.40;;;;;;;30.23;38.88;98315.84;4487041;31;20341;-85
2022/08/28 06:37:19;;;;;;;8.77;3.33;;;;;;;30.10;38.36;98309.47;4486791;31;20130;-85
2022/08/28 06:39:44;;;;;;;10.60;3.00;;;;;;;30.21;38.11;98307.06;4486959;31;20104;-85
2022/08/28 06:42:10;;;;;;;10.07;3.80;;;;;;;30.24;38.17;98315.63;4486896;31;20435;-85
2022/08/28 06:44:37;;;;;;;10.80;3.40;;;;;;;30.23;38.10;98313.97;4487011;31;20104;-85
2022/08/28 06:47:02;;;;;;;9.15;3.17;;;;;;;29.57;39.13;98309.81;4486890;31;20117;-85
2022/08/28 06:49:28;;;;;;;10.27;3.60;;;;;;;29.97;38.78;98307.69;4485441;32;20084;-85
2022/08/28 06:51:55;;;;;;;10.02;3.28;;;;;;;29.67;39.61;98314.75;4486694;32;20100;-85
2022/08/28 06:54:21;;;;;;;9.85;3.33;;;;;;;29.58;39.15;98319.63;4486804;32;20119;-85
2022/08/28 06:56:47;;;;;;;7.28;2.90;;;;;;;29.77;39.11;98318.69;4486763;31;20092;-85
2022/08/28 06:59:13;;;;;;;9.95;3.47;;;;;;;30.15;38.75;98315.09;4485460;32;20113;-85
2022/08/28 07:01:38;;;;;;;9.40;3.30;;;;;;;30.21;38.27;98316.09;4486538;31;20455;-85
2022/08/28 07:04:09;;;;;;;10.00;3.67;;;;;;;30.40;37.77;98327.84;4485793;31;20137;-85
2022/08/28 07:06:37;;;;;;;11.65;3.40;;;;;;;30.20;37.52;98325.28;4486643;31;20084;-85
2022/08/28 07:09:05;;;;;;;9.88;3.42;;;;;;;30.22;37.35;98325.88;4486538;31;20145;-85
2022/08/28 07:11:32;;;;;;;10.57;3.45;;;;;;;30.31;37.14;98327.31;4486418;31;20119;-85
2022/08/28 07:13:58;;;;;;;10.65;3.70;;;;;;;30.52;36.86;98330.66;4486551;31;20119;-85
2022/08/28 07:16:28;;;;;;;7.10;2.95;;;;;;;30.56;36.83;98335.44;4485259;32;20093;-85
2022/08/28 07:18:53;;;;;;;11.60;3.55;;;;;;;30.70;36.83;98335.31;4486400;31;20084;-85
2022/08/28 07:21:19;;;;;;;9.38;3.37;;;;;;;30.63;36.83;98334.53;4486459;31;20097;-85
2022/08/28 07:23:45;;;;;;;10.63;3.53;;;;;;;30.66;37.10;98334.09;4486402;31;20092;-85
2022/08/28 07:26:14;;;;;;;10.60;3.75;;;;;;;30.56;37.15;98329.16;4486135;31;20092;-85
2022/08/28 07:28:40;;;;;;;9.13;3.58;;;;;;;30.50;36.95;98340.91;4486122;31;20419;-85
2022/08/28 07:31:14;;;;;;;10.65;3.22;;;;;;;30.24;36.17;98348.22;4486210;31;20127;-85
2022/08/28 07:33:40;;;;;;;9.25;3.65;;;;;;;30.17;37.15;98347.44;4486488;31;20114;-85
2022/08/28 07:36:08;;;;;;;9.93;3.45;;;;;;;30.23;37.19;98341.13;4486565;32;20412;-85
2022/08/28 07:38:34;;;;;;;10.68;3.67;;;;;;;30.29;37.40;98344.81;4486580;31;20080;-85
2022/08/28 07:40:59;;;;;;;11.05;3.17;;;;;;;30.15;37.40;98346.81;4484975;32;20104;-85
2022/08/28 07:46:12;;;;;;;12.80;4.12;;;;;;;30.27;37.10;98346.94;4486178;32;20509;-85
2022/08/28 07:48:39;;;;;;;10.32;3.30;;;;;;;30.31;37.06;98343.59;4484802;32;20077;-86
2022/08/28 07:51:06;;;;;;;8.95;3.50;;;;;;;29.59;38.05;98345.69;4485914;31;20096;-85
2022/08/28 07:53:32;;;;;;;;;;;;;;;30.12;37.62;98344.56;4486333;31;20357;-85
2022/08/28 07:55:57;;;;;;;9.45;3.20;;;;;;;30.29;36.60;98344.81;4485964;31;20010;-85
2022/08/28 07:58:25;;;;;;;13.10;3.30;;;;;;;30.28;37.11;98341.28;4485850;32;20097;-84
2022/08/28 08:00:51;;;;;;;9.80;3.80;;;;;;;30.61;37.07;98345.63;4485815;31;20182;-85
2022/08/28 08:03:17;;;;;;;10.23;3.65;;;;;;;30.64;36.52;98342.47;4485708;31;20160;-85
2022/08/28 08:05:54;;;;;;;9.82;3.40;;;;;;;30.48;36.19;98349.31;4485815;31;20092;-85
2022/08/28 08:08:20;;;;;;;9.48;3.45;;;;;;;30.38;35.54;98347.09;4485819;31;20128;-85
2022/08/28 08:11:01;;;;;;;10.60;3.60;;;;;;;30.66;35.70;98345.78;4486008;31;20143;-85
2022/08/28 08:13:28;;;;;;;10.55;3.67;;;;;;;30.52;36.29;98349.69;4485898;31;20432;-85
2022/08/28 08:15:53;;;;;;;;;;;;;;;30.67;35.26;98347.44;4486440;32;20432;-85
2022/08/28 08:18:19;;;;;;;9.15;3.33;;;;;;;30.46;35.80;98354.16;4488173;31;20023;-85
2022/08/28 08:20:44;;;;;;;10.68;3.70;;;;;;;30.62;35.46;98358.19;4488115;31;20104;-85
2022/08/28 08:23:10;;;;;;;9.00;3.25;;;;;;;30.70;34.67;98352.44;4488157;31;20092;-85
2022/08/28 08:25:35;;;;;;;11.05;3.55;;;;;;;30.99;34.99;98357.41;4488297;31;20378;-85
2022/08/28 08:28:02;;;;;;;9.80;3.50;;;;;;;31.26;34.44;98355.22;4488074;32;20115;-85
2022/08/28 08:30:28;;;;;;;11.40;3.45;;;;;;;31.17;34.55;98358.22;4487986;31;20114;-86
2022/08/28 08:32:53;;;;;;;10.95;3.62;;;;;;;31.20;34.53;98356.94;4487751;32;20088;-85
2022/08/28 08:35:19;;;;;;;10.05;3.53;;;;;;;31.80;33.63;98355.37;4487748;31;20089;-85
2022/08/28 08:37:44;;;;;;;10.95;3.42;;;;;;;31.86;33.85;98357.16;4487765;32;20118;-85
2022/08/28 08:40:14;;;;;;;10.40;3.62;;;;;;;31.77;33.08;98364.00;4487784;31;20124;-85
2022/08/28 08:42:45;;;;;;;9.60;3.40;;;;;;;31.79;32.93;98368.13;4487648;32;20118;-85
2022/08/28 08:45:14;;;;;;;10.73;3.55;;;;;;;31.90;32.39;98361.91;4487938;31;20096;-86
2022/08/28 08:47:48;;;;;;;11.88;3.58;;;;;;;32.19;32.04;98367.56;4486474;32;20375;-85
2022/08/28 08:50:24;;;;;;;12.05;3.58;;;;;;;31.64;33.38;98359.56;4487789;31;20100;-85
2022/08/28 08:53:27;;;;;;;10.10;3.58;;;;;;;31.62;33.17;98367.97;4487719;31;20105;-85
2022/08/28 08:55:55;;;;;;;9.15;3.47;;;;;;;31.67;32.79;98367.28;4438487;32;20097;-86
2022/08/28 08:58:29;;;;;;;11.90;3.62;;;;;;;31.88;32.12;98360.47;4438576;32;20116;-85
2022/08/28 09:01:08;;;;;;;11.52;3.50;;;;;;;31.81;32.41;98355.13;4425761;32;20203;-85
2022/08/28 09:04:10;;;;;;;9.95;3.70;;;;;;;31.74;33.70;98368.84;4425785;32;20101;-86
2022/08/28 09:06:43;;;;;;;9.80;3.60;;;;;;;31.30;33.62;98364.59;4438529;32;20097;-85
2022/08/28 09:09:26;;;;;;;10.48;3.72;;;;;;;31.12;34.59;98360.00;4425833;32;20109;-86
2022/08/28 09:11:57;;;;;;;10.27;3.45;;;;;;;31.06;34.32;98366.31;4438474;32;20133;-85
2022/08/28 09:14:56;;;;;;;8.90;3.72;;;;;;;31.23;34.24;98361.09;4425652;32;20116;-85
2022/08/28 09:17:26;;;;;;;9.80;4.05;;;;;;;30.72;35.43;98363.09;4377725;32;20114;-85
2022/08/28 09:19:52;;;;;;;10.57;3.80;;;;;;;31.07;34.75;98359.81;4377712;32;20106;-85
2022/08/28 09:22:17;;;;;;;10.68;3.95;;;;;;;31.36;34.93;98366.38;4377666;32;20141;-84
2022/08/28 09:24:43;;;;;;;10.88;3.90;;;;;;;31.25;35.17;98357.09;4377704;32;20145;-85
2022/08/28 09:27:31;;;;;;;11.98;4.45;;;;;;;31.48;34.26;98364.56;4377051;32;20410;-86
2022/08/28 09:30:05;;;;;;;9.82;3.55;;;;;;;30.57;36.98;98377.03;4377779;32;20588;-85
2022/08/28 09:32:34;;;;;;;10.18;3.80;;;;;;;30.77;36.74;98369.53;4378339;32;20114;-85
2022/08/28 09:35:14;;;;;;;11.15;3.67;;;;;;;30.88;35.96;98375.28;4410343;32;20136;-86
2022/08/28 09:37:42;;;;;;;10.13;3.90;;;;;;;30.25;37.20;98376.22;4423083;32;20117;-85
2022/08/28 09:40:17;;;;;;;9.55;4.05;;;;;;;30.39;36.83;98372.38;4410318;32;20143;-85
2022/08/28 09:45:41;;;;;;;9.98;3.83;;;;;;;30.58;36.32;98376.81;4412211;32;20215;-85
2022/08/28 09:48:42;;;;;;;11.40;3.60;;;;;;;30.81;35.12;98374.50;4422854;32;20121;-85
2022/08/28 09:51:12;;;;;;;11.88;4.05;;;;;;;30.77;35.42;98374.12;4405869;32;20449;-84
2022/08/28 09:54:01;;;;;;;11.05;3.65;;;;;;;30.68;35.08;98384.47;4439918;32;20583;-85
2022/08/28 09:56:33;;;;;;;11.65;4.10;;;;;;;30.68;35.04;98373.59;4473079;32;20109;-85
2022/08/28 09:59:02;;;;;;;11.02;4.05;;;;;;;30.55;35.40;98371.00;4486205;32;20116;-85
2022/08/28 10:01:40;;;;;;;12.93;4.30;;;;;;;31.09;33.41;98366.69;4485960;32;20084;-85
2022/08/28 10:04:30;;;;;;;10.43;4.37;;;;;;;30.94;34.27;98367.06;4487307;31;20091;-86
2022/08/28 10:07:07;;;;;;;12.05;4.07;;;;;;;30.89;34.54;98364.22;4487434;31;20083;-85
2022/08/28 10:09:48;;;;;;;11.35;4.03;;;;;;;30.74;34.37;98364.53;4486170;32;20084;-85
2022/08/28 10:12:32;;;;;;;10.88;4.30;;;;;;;30.98;34.42;98372.88;4486966;32;20080;-85
2022/08/28 10:15:17;;;;;;;9.52;4.00;;;;;;;30.76;34.75;98373.28;4487163;32;20115;-85
2022/08/28 10:18:20;;;;;;;10.40;3.53;;;;;;;30.68;33.73;98378.19;4485995;32;20164;-85
2022/08/28 10:21:11;;;;;;;10.45;3.85;;;;;;;30.78;32.31;98368.47;4485908;32;20580;-85
2022/08/28 10:23:43;;;;;;;9.35;3.65;;;;;;;31.00;32.07;98370.75;4487300;31;20088;-85
2022/08/28 10:26:15;;;;;;;9.60;3.65;;;;;;;31.11;32.27;98371.91;4485884;32;20104;-85
2022/08/28 10:29:02;;;;;;;10.13;3.83;;;;;;;30.91;33.49;98369.44;4487058;31;20383;-85
2022/08/28 10:31:43;;;;;;;9.73;3.87;;;;;;;30.51;34.15;98365.16;4472563;32;20092;-85
2022/08/28 10:34:28;;;;;;;10.13;4.22;;;;;;;31.03;33.64;98358.62;4487054;31;20084;-85
2022/08/28 10:37:04;;;;;;;9.55;3.85;;;;;;;31.01;34.30;98367.00;4485809;32;20104;-85
2022/08/28 10:39:50;;;;;;;10.35;3.85;;;;;;;31.01;34.41;98369.72;4484726;32;20135;-85
2022/08/28 10:42:24;;;;;;;10.20;4.12;;;;;;;31.30;33.48;98359.97;4485789;32;20471;-85
2022/08/28 10:44:55;;;;;;;9.57;3.75;;;;;;;31.06;34.20;98363.59;4485745;32;20084;-85
2022/08/28 10:47:22;;;;;;;10.13;3.90;;;;;;;31.55;33.52;98357.16;4485871;32;20108;-85
2022/08/28 10:49:50;;;;;;;11.68;3.85;;;;;;;31.63;32.84;98355.19;4485743;32;20159;-85
2022/08/28 10:52:29;;;;;;;10.45;3.67;;;;;;;31.37;33.08;98357.19;4485518;32;20092;-85
2022/08/28 10:55:03;;;;;;;10.07;3.60;;;;;;;31.60;32.23;98356.44;4485527;32;20089;-85
2022/08/28 10:57:41;;;;;;;10.32;3.65;;;;;;;31.57;31.98;98358.84;4485642;32;20096;-85
2022/08/28 11:00:11;;;;;;;10.48;3.30;;;;;;;31.64;32.13;98354.97;4485528;32;20126;-85
2022/08/28 11:02:38;;;;;;;10.23;3.80;;;;;;;31.86;31.58;98347.09;4486786;31;20447;-85
2022/08/28 11:05:04;;;;;;;10.98;3.72;;;;;;;31.25;32.46;98359.81;4485809;32;20084;-85
2022/08/28 11:07:35;;;;;;;11.25;3.78;;;;;;;31.27;32.00;98349.53;4485651;32;20154;-85
2022/08/28 11:10:19;;;;;;;11.00;3.65;;;;;;;31.29;32.04;98352.88;4486920;31;20178;-85
2022/08/28 11:12:45;;;;;;;9.43;3.62;;;;;;;30.99;32.18;98360.13;4486419;31;20372;-84
2022/08/28 11:15:41;;;;;;;10.13;3.72;;;;;;;31.59;31.22;98359.44;4486533;31;20080;-85
2022/08/28 11:18:48;;;;;;;8.95;3.50;;;;;;;32.09;30.47;98351.78;4476296;31;20455;-85
2022/08/28 11:21:20;;;;;;;9.20;3.70;;;;;;;32.04;30.93;98359.84;4421989;32;20132;-85
2022/08/28 11:23:59;;;;;;;9.70;4.00;;;;;;;31.46;32.60;98357.72;4422121;32;20124;-85
2022/08/28 11:27:08;;;;;;;9.98;3.72;;;;;;;31.86;32.86;98352.53;4409564;32;20146;-85
2022/08/28 11:29:56;;;;;;;10.00;3.90;;;;;;;32.04;33.02;98346.22;4412171;32;20101;-85
2022/08/28 11:32:30;;;;;;;9.65;4.05;;;;;;;32.05;32.17;98356.06;4409227;32;20770;-85
2022/08/28 11:34:57;;;;;;;13.05;4.22;;;;;;;32.32;31.42;98350.19;4421775;32;20610;-85
2022/08/28 11:37:44;;;;;;;10.27;3.50;;;;;;;32.47;31.59;98350.56;4409001;32;20484;-84
2022/08/28 11:40:27;;;;;;;9.55;3.40;;;;;;;32.07;32.27;98353.09;4421958;32;20157;-85
2022/08/28 11:43:15;;;;;;;9.13;3.65;;;;;;;32.15;32.32;98343.75;4408976;32;20382;-85
2022/08/28 11:45:49;;;;;;;8.45;3.50;;;;;;;32.37;30.54;98354.91;4421711;32;20150;-85
2022/08/28 11:48:24;;;;;;;10.38;3.50;;;;;;;32.06;31.45;98351.44;4421846;32;20477;-85
2022/08/28 11:51:16;;;;;;;8.88;3.53;;;;;;;32.07;31.24;98351.19;4422774;32;20125;-85
2022/08/28 11:53:44;;;;;;;9.45;3.28;;;;;;;31.89;31.17;98345.78;4413637;32;20102;-85